Time;durP1;ratioP1;P1;durP2;ratioP2;P2;SDS_P1;SDS_P2;PMS_P1;PMS_P2;Temp;Humidity;BMP_temperature;BMP_pressure;BME280_temperature;BME280_humidity;BME280_pressure;Samples;Min_cycle;Max_cycle;Signal;HPM_P1;HPM_P2
2021/08/21 00:01:06;;;;;;;16.27;7.57;;;;;;;20.91;54.29;99286.81;5111612;28;20118;-75
2021/08/21 00:03:32;;;;;;;18.08;8.00;;;;;;;20.82;54.71;99289.66;5111629;28;20076;-73
2021/08/21 00:05:58;;;;;;;13.88;7.55;;;;;;;20.79;55.05;99279.28;5111356;28;20043;-76
2021/08/21 00:08:23;;;;;;;19.60;7.85;;;;;;;20.73;55.34;99279.25;5111303;28;20047;-76
2021/08/21 00:10:49;;;;;;;16.48;7.30;;;;;;;20.71;55.34;99262.44;5111305;28;20074;-74
2021/08/21 00:13:15;;;;;;;14.63;7.63;;;;;;;20.67;55.59;99259.31;5111343;28;20040;-74
2021/08/21 00:15:41;;;;;;;22.55;7.63;;;;;;;20.63;55.58;99255.34;5111549;28;20122;-78
2021/08/21 00:18:07;;;;;;;14.38;7.95;;;;;;;20.57;55.59;99259.63;5111181;28;20040;-74
2021/08/21 00:20:34;;;;;;;17.42;7.88;;;;;;;20.59;55.61;99262.16;5111380;28;20039;-74
2021/08/21 00:23:00;;;;;;;11.20;7.13;;;;;;;20.58;55.70;99265.84;5111206;28;20040;-73
2021/08/21 00:25:26;;;;;;;16.35;8.10;;;;;;;20.54;55.42;99260.03;5111377;28;20042;-73
2021/08/21 00:27:52;;;;;;;14.50;7.38;;;;;;;20.49;55.61;99259.78;5111076;28;20050;-74
2021/08/21 00:30:17;;;;;;;16.48;7.70;;;;;;;20.47;55.99;99265.38;5111097;28;20055;-73
2021/08/21 00:32:43;;;;;;;17.35;8.05;;;;;;;20.46;55.60;99258.31;5111312;28;20488;-72
2021/08/21 00:35:11;;;;;;;12.10;7.13;;;;;;;20.43;56.09;99257.88;5110868;28;20085;-77
2021/08/21 00:37:38;;;;;;;17.42;7.78;;;;;;;20.47;55.93;99259.16;5113476;28;20496;-73
2021/08/21 00:40:05;;;;;;;18.17;8.10;;;;;;;20.46;56.14;99262.84;5114881;28;20043;-73
2021/08/21 00:42:31;;;;;;;12.93;8.05;;;;;;;20.43;56.15;99256.00;5115159;28;20515;-76
2021/08/21 00:44:57;;;;;;;16.40;8.02;;;;;;;20.44;56.45;99257.69;5114591;28;20043;-77
2021/08/21 00:47:23;;;;;;;20.23;8.30;;;;;;;20.44;56.41;99257.69;5114681;28;20054;-74
2021/08/21 00:49:53;;;;;;;18.08;8.15;;;;;;;20.41;56.75;99250.00;5113125;28;20043;-73
2021/08/21 00:52:27;;;;;;;13.60;7.88;;;;;;;20.36;57.01;99247.06;5114821;28;20054;-77
2021/08/21 00:54:54;;;;;;;18.77;8.73;;;;;;;20.36;57.05;99253.28;5114759;28;20519;-74
2021/08/21 00:57:20;;;;;;;15.40;8.47;;;;;;;20.34;56.96;99258.00;5114803;28;20050;-73
2021/08/21 00:59:48;;;;;;;12.57;7.90;;;;;;;20.34;57.46;99255.31;5114406;28;20055;-73
2021/08/21 01:02:15;;;;;;;15.20;8.80;;;;;;;20.32;57.26;99251.97;5113099;28;20708;-73
2021/08/21 01:04:43;;;;;;;14.23;8.43;;;;;;;20.29;57.53;99256.94;5113316;28;20054;-75
2021/08/21 01:07:11;;;;;;;14.50;7.90;;;;;;;20.32;57.05;99264.59;5113289;28;20043;-75
2021/08/21 01:09:39;;;;;;;14.98;8.07;;;;;;;20.35;57.27;99272.28;5112870;28;20040;-75
2021/08/21 01:12:13;;;;;;;13.93;7.60;;;;;;;20.39;57.11;99267.31;5112575;28;20055;-73
2021/08/21 01:14:41;;;;;;;15.82;7.43;;;;;;;20.37;57.12;99254.09;5112692;28;20074;-75
2021/08/21 01:17:07;;;;;;;14.57;7.90;;;;;;;20.38;56.98;99255.75;5112957;28;20058;-72
2021/08/21 01:19:37;;;;;;;12.00;7.65;;;;;;;20.39;57.03;99243.16;5112974;28;20051;-75
2021/08/21 01:22:08;;;;;;;14.38;7.25;;;;;;;20.35;57.17;99234.66;5112604;28;20069;-73
2021/08/21 01:24:35;;;;;;;12.35;7.32;;;;;;;20.28;57.37;99212.28;5112982;28;20036;-73
2021/08/21 01:27:01;;;;;;;15.65;7.18;;;;;;;20.27;57.54;99224.03;5113651;28;20047;-74
2021/08/21 01:29:34;;;;;;;12.73;7.50;;;;;;;20.27;57.56;99221.38;5112255;28;20142;-72
2021/08/21 01:32:33;;;;;;;18.42;8.02;;;;;;;20.25;57.47;99234.16;5070765;28;20049;-74
2021/08/21 01:35:00;;;;;;;12.20;7.43;;;;;;;20.24;57.90;99227.94;5070380;28;20217;-73
2021/08/21 01:37:27;;;;;;;12.50;7.18;;;;;;;20.27;57.69;99237.47;5053946;28;20044;-76
2021/08/21 01:40:14;;;;;;;15.98;7.38;;;;;;;20.28;57.63;99231.91;5069895;28;20094;-75
2021/08/21 01:42:40;;;;;;;16.13;7.57;;;;;;;20.32;57.80;99235.03;5053655;28;20094;-73
2021/08/21 01:45:11;;;;;;;13.85;6.82;;;;;;;20.29;57.82;99225.50;5053499;28;20044;-75
2021/08/21 01:47:38;;;;;;;15.05;7.88;;;;;;;20.27;57.93;99226.72;5070486;28;20116;-74
2021/08/21 01:50:08;;;;;;;15.10;7.70;;;;;;;20.26;57.85;99222.38;5053436;28;20040;-74
2021/08/21 01:52:34;;;;;;;12.35;7.65;;;;;;;20.23;57.96;99222.78;5053511;28;20551;-73
2021/08/21 01:55:00;;;;;;;14.00;7.40;;;;;;;20.16;58.28;99226.25;5053096;28;20041;-72
2021/08/21 01:57:28;;;;;;;14.55;7.75;;;;;;;20.14;58.52;99228.28;5053874;28;20131;-76
2021/08/21 02:00:12;;;;;;;12.60;7.90;;;;;;;20.13;58.36;99220.41;5053589;28;20045;-73
2021/08/21 02:02:45;;;;;;;18.15;7.35;;;;;;;20.08;58.70;99226.34;5069568;28;20078;-74
2021/08/21 02:05:21;;;;;;;14.13;7.40;;;;;;;20.06;58.82;99231.06;5069197;28;20052;-74
2021/08/21 02:07:46;;;;;;;14.07;7.35;;;;;;;20.03;58.93;99226.09;5084671;28;20047;-73
2021/08/21 02:10:13;;;;;;;12.52;7.32;;;;;;;20.02;59.16;99240.53;5111612;28;20498;-74
2021/08/21 02:12:39;;;;;;;17.40;7.63;;;;;;;20.04;59.16;99233.94;5111800;28;20050;-73
2021/08/21 02:15:11;;;;;;;14.55;7.80;;;;;;;20.06;59.25;99236.44;5111553;28;20050;-73
2021/08/21 02:17:40;;;;;;;14.77;6.93;;;;;;;20.03;59.31;99240.34;5111609;28;20046;-73
2021/08/21 02:20:24;;;;;;;13.45;7.65;;;;;;;20.05;59.19;99245.53;5111872;28;20070;-74
2021/08/21 02:22:51;;;;;;;15.50;7.70;;;;;;;20.07;59.39;99238.09;5111616;28;20039;-76
2021/08/21 02:25:18;;;;;;;13.52;6.95;;;;;;;20.06;59.02;99238.31;5111331;28;20404;-73
2021/08/21 02:27:55;;;;;;;13.50;7.03;;;;;;;20.07;59.10;99240.78;5111617;28;20039;-75
2021/08/21 02:30:21;;;;;;;13.27;7.18;;;;;;;20.03;59.21;99236.84;5112896;28;20055;-75
2021/08/21 02:32:47;;;;;;;16.42;7.40;;;;;;;20.04;59.39;99228.59;5111541;28;20043;-75
2021/08/21 02:35:13;;;;;;;15.32;7.68;;;;;;;20.04;59.42;99231.28;5111353;28;20061;-72
2021/08/21 02:37:39;;;;;;;17.48;8.15;;;;;;;20.04;59.32;99227.75;5111577;28;20121;-74
2021/08/21 02:40:06;;;;;;;18.42;7.22;;;;;;;19.97;59.65;99221.50;5112688;28;20062;-75
2021/08/21 02:42:32;;;;;;;17.60;7.53;;;;;;;19.96;59.90;99218.00;5112245;28;20120;-73
2021/08/21 02:44:58;;;;;;;11.00;7.05;;;;;;;19.93;59.89;99214.84;5112476;28;20077;-75
2021/08/21 02:47:24;;;;;;;13.27;7.28;;;;;;;19.90;60.12;99215.22;5111218;28;20104;-73
2021/08/21 02:49:49;;;;;;;13.90;6.97;;;;;;;19.86;60.26;99215.63;5111153;28;20035;-74
2021/08/21 02:52:15;;;;;;;14.80;7.35;;;;;;;19.88;60.00;99218.91;5112049;28;20138;-71
2021/08/21 02:54:42;;;;;;;12.13;7.35;;;;;;;19.90;60.07;99217.91;5111059;28;20035;-76
2021/08/21 02:57:08;;;;;;;14.23;7.43;;;;;;;19.87;60.27;99227.16;5110567;28;20086;-74
2021/08/21 02:59:34;;;;;;;13.38;7.75;;;;;;;19.79;60.30;99224.56;5110048;28;20533;-73
2021/08/21 03:02:03;;;;;;;11.70;6.85;;;;;;;19.85;60.19;99227.38;5110257;28;20127;-74
2021/08/21 03:04:31;;;;;;;14.60;7.70;;;;;;;19.84;60.08;99225.69;5110307;28;20051;-74
2021/08/21 03:06:57;;;;;;;16.80;7.28;;;;;;;19.80;60.04;99226.22;5110564;28;20474;-75
2021/08/21 03:09:42;;;;;;;16.83;7.28;;;;;;;19.80;59.95;99215.50;5111571;28;20031;-76
2021/08/21 03:12:09;;;;;;;18.08;6.88;;;;;;;19.78;59.69;99213.00;5110905;28;20474;-73
2021/08/21 03:14:50;;;;;;;13.27;6.63;;;;;;;19.78;59.81;99207.63;5112081;28;20535;-75
2021/08/21 03:17:16;;;;;;;13.27;6.85;;;;;;;19.80;59.44;99207.44;5111890;28;20567;-75
2021/08/21 03:19:42;;;;;;;12.82;6.60;;;;;;;19.77;59.18;99205.97;5110512;28;20611;-75
2021/08/21 03:22:09;;;;;;;15.77;6.43;;;;;;;19.78;59.08;99204.13;5110196;28;20046;-73
2021/08/21 03:24:38;;;;;;;10.55;5.80;;;;;;;19.81;58.79;99211.78;5110749;28;20122;-75
2021/08/21 03:27:04;;;;;;;12.10;5.78;;;;;;;19.80;58.25;99208.28;5110490;28;20069;-76
2021/08/21 03:29:31;;;;;;;12.13;6.30;;;;;;;19.80;58.54;99200.25;5093413;28;20082;-74
2021/08/21 03:31:57;;;;;;;9.73;5.97;;;;;;;19.80;58.07;99200.25;5111480;28;20281;-74
2021/08/21 03:34:24;;;;;;;10.40;5.90;;;;;;;19.82;57.98;99198.19;5111680;28;20043;-76
2021/08/21 03:36:52;;;;;;;11.30;6.55;;;;;;;19.85;57.54;99195.16;5110246;28;20055;-72
2021/08/21 03:39:19;;;;;;;11.98;5.10;;;;;;;19.88;57.42;99202.00;5110215;28;20042;-74
2021/08/21 03:41:47;;;;;;;12.65;6.00;;;;;;;19.93;57.23;99201.44;5110460;28;20071;-74
2021/08/21 03:44:14;;;;;;;15.05;7.68;;;;;;;19.97;57.24;99202.69;5109867;28;20253;-75
2021/08/21 03:46:40;;;;;;;12.23;6.55;;;;;;;19.93;57.23;99201.44;5111822;28;20131;-74
2021/08/21 03:49:08;;;;;;;12.45;5.85;;;;;;;19.93;57.14;99204.13;5110215;28;20035;-73
2021/08/21 03:51:35;;;;;;;13.63;5.53;;;;;;;19.95;56.81;99207.41;5110244;28;20047;-74
2021/08/21 03:54:02;;;;;;;16.15;5.88;;;;;;;19.96;56.60;99211.78;5111579;28;20040;-73
2021/08/21 03:56:29;;;;;;;11.18;5.70;;;;;;;20.02;56.41;99211.00;5110589;28;20047;-75
2021/08/21 03:59:04;;;;;;;11.25;5.40;;;;;;;20.04;56.22;99219.72;5110595;28;20048;-75
2021/08/21 04:01:32;;;;;;;11.85;6.68;;;;;;;20.08;55.99;99226.34;5110392;28;20067;-76
2021/08/21 04:04:06;;;;;;;12.48;5.32;;;;;;;20.12;55.87;99216.88;5111040;28;20042;-82
2021/08/21 04:06:40;;;;;;;15.95;7.68;;;;;;;20.08;55.71;99214.78;5110474;28;20093;-76
2021/08/21 04:09:08;;;;;;;9.15;4.85;;;;;;;20.10;55.76;99202.84;5110067;28;20609;-76
2021/08/21 04:11:37;;;;;;;10.43;5.10;;;;;;;20.12;55.47;99213.38;5110993;28;20116;-75
2021/08/21 04:14:11;;;;;;;13.73;5.57;;;;;;;20.14;55.47;99209.47;5113599;28;20492;-75
2021/08/21 04:16:38;;;;;;;10.32;5.38;;;;;;;20.16;55.00;99210.13;5114183;28;20050;-75
2021/08/21 04:19:04;;;;;;;11.63;4.90;;;;;;;20.18;55.14;99202.69;5115136;28;20047;-76
2021/08/21 04:21:39;;;;;;;9.20;4.93;;;;;;;20.22;54.97;99207.69;5113910;28;20100;-79
2021/08/21 04:24:07;;;;;;;10.43;5.15;;;;;;;20.32;54.96;99202.81;5113534;28;20499;-76
2021/08/21 04:26:34;;;;;;;;;;;;;;;20.38;54.58;99207.41;5114112;28;20047;-74
2021/08/21 04:29:18;;;;;;;15.07;5.20;;;;;;;20.47;54.63;99202.72;5114887;28;19920;-76
2021/08/21 04:31:44;;;;;;;13.07;4.85;;;;;;;20.53;54.15;99205.44;5114157;28;20127;-76
2021/08/21 04:34:11;;;;;;;12.10;5.45;;;;;;;20.59;54.22;99205.72;5113758;28;20047;-75
2021/08/21 04:36:37;;;;;;;15.82;9.55;;;;;;;20.73;54.10;99210.19;5114969;28;20069;-75
2021/08/21 04:39:04;;;;;;;11.95;7.30;;;;;;;20.90;53.38;99204.50;5113431;28;20043;-74
2021/08/21 04:41:30;;;;;;;13.45;5.70;;;;;;;21.09;53.10;99203.78;5113767;28;20040;-80
2021/08/21 04:43:58;;;;;;;9.57;4.85;;;;;;;21.36;52.16;99206.63;5113902;28;20043;-75
2021/08/21 04:46:25;;;;;;;9.83;4.87;;;;;;;21.88;51.15;99207.03;5113649;28;20047;-77
2021/08/21 04:48:51;;;;;;;12.57;6.82;;;;;;;22.23;49.84;99192.56;5114079;28;20096;-77
2021/08/21 04:51:16;;;;;;;13.95;5.65;;;;;;;22.83;48.48;99194.41;5114967;28;20082;-80
2021/08/21 04:53:43;;;;;;;7.05;4.78;;;;;;;24.14;45.81;99197.81;5113372;28;20047;-80
2021/08/21 04:56:09;;;;;;;9.52;4.93;;;;;;;24.63;44.25;99194.50;5113973;28;20092;-78
2021/08/21 04:58:54;;;;;;;17.88;9.80;;;;;;;24.82;43.81;99190.81;5115115;28;20043;-78
2021/08/21 05:01:21;;;;;;;14.15;4.78;;;;;;;25.44;42.86;99191.81;5113729;28;20487;-77
2021/08/21 05:03:47;;;;;;;13.48;5.70;;;;;;;25.84;40.96;99199.38;5113832;28;20043;-76
2021/08/21 05:06:13;;;;;;;9.88;4.53;;;;;;;26.83;39.44;99198.06;5113380;28;20079;-77
2021/08/21 05:08:39;;;;;;;14.00;6.82;;;;;;;27.37;38.58;99205.97;5113772;28;20075;-78
2021/08/21 05:11:05;;;;;;;11.98;5.05;;;;;;;28.15;37.23;99204.75;5113870;28;20051;-77
2021/08/21 05:13:32;;;;;;;15.80;4.67;;;;;;;28.14;36.89;99203.09;5113844;28;20039;-80
2021/08/21 05:16:03;;;;;;;12.38;6.22;;;;;;;27.29;37.57;99203.63;5097925;28;20039;-76
2021/08/21 05:18:58;;;;;;;7.43;4.13;;;;;;;28.13;37.13;99202.28;5113759;28;20047;-77
2021/08/21 05:21:33;;;;;;;14.68;5.10;;;;;;;28.82;35.62;99209.34;5113258;28;20075;-76
2021/08/21 05:23:59;;;;;;;11.75;4.43;;;;;;;29.26;34.49;99205.03;5090908;28;20046;-76
2021/08/21 05:26:25;;;;;;;13.70;7.25;;;;;;;29.53;33.50;99202.38;5091762;28;20040;-75
2021/08/21 05:28:52;;;;;;;16.10;4.90;;;;;;;29.40;33.99;99195.44;5091008;28;20056;-77
2021/08/21 05:31:18;;;;;;;7.57;4.63;;;;;;;29.47;34.08;99203.41;5091625;28;20123;-76
2021/08/21 05:33:44;;;;;;;12.77;4.93;;;;;;;30.71;32.62;99205.41;5092188;28;20455;-77
2021/08/21 05:36:10;;;;;;;9.68;3.85;;;;;;;30.65;32.32;99211.91;5093576;28;20148;-78
2021/08/21 05:38:36;;;;;;;7.53;4.03;;;;;;;31.32;31.35;99215.03;5092548;28;20052;-81
2021/08/21 05:41:02;;;;;;;12.33;4.27;;;;;;;31.53;30.26;99215.09;5076655;28;20085;-75
2021/08/21 05:43:28;;;;;;;10.43;4.28;;;;;;;30.79;31.21;99213.09;5091925;28;20286;-76
2021/08/21 05:45:54;;;;;;;7.22;4.22;;;;;;;30.65;31.02;99207.25;5092108;28;20118;-79
2021/08/21 05:48:20;;;;;;;6.70;4.27;;;;;;;30.87;31.21;99205.47;5093176;28;20411;-75
2021/08/21 05:50:45;;;;;;;7.70;4.00;;;;;;;30.26;31.88;99203.97;5093546;28;20048;-78
2021/08/21 05:53:11;;;;;;;12.70;3.90;;;;;;;30.20;31.88;99199.53;5092753;28;20543;-79
2021/08/21 05:55:37;;;;;;;5.95;3.75;;;;;;;31.12;30.76;99208.38;5075665;28;20122;-79
2021/08/21 05:58:15;;;;;;;15.02;4.50;;;;;;;32.06;29.45;99196.63;5092349;28;20438;-79
2021/08/21 06:00:46;;;;;;;8.88;4.55;;;;;;;33.09;28.01;99197.63;5092253;28;20044;-75
2021/08/21 06:03:12;;;;;;;9.00;4.50;;;;;;;33.28;27.29;99201.38;5092099;28;20055;-81
2021/08/21 06:05:41;;;;;;;14.80;5.70;;;;;;;34.06;26.30;99207.31;5092699;28;20142;-82
2021/08/21 06:08:07;;;;;;;12.82;4.45;;;;;;;34.20;26.16;99201.97;5091258;28;20039;-82
2021/08/21 06:10:35;;;;;;;13.75;4.18;;;;;;;33.46;27.16;99207.38;5091895;28;20093;-83
2021/08/21 06:13:05;;;;;;;15.82;8.63;;;;;;;32.53;27.61;99210.34;5075614;28;20052;-77
2021/08/21 06:15:31;;;;;;;8.77;4.73;;;;;;;31.62;29.05;99218.97;5092938;28;20093;-78
2021/08/21 06:17:56;;;;;;;9.33;3.97;;;;;;;31.27;29.33;99213.09;5092975;28;20137;-80
2021/08/21 06:20:22;;;;;;;10.23;4.60;;;;;;;31.04;30.13;99214.34;5092497;28;20458;-81
2021/08/21 06:22:48;;;;;;;7.17;4.03;;;;;;;30.30;31.00;99211.34;5074835;28;20036;-79
2021/08/21 06:25:14;;;;;;;7.27;3.77;;;;;;;29.72;32.19;99216.53;5092733;28;20274;-81
2021/08/21 06:27:39;;;;;;;8.27;4.05;;;;;;;29.15;33.03;99210.34;5093094;28;20135;-77
2021/08/21 06:30:06;;;;;;;6.97;4.05;;;;;;;28.55;34.13;99222.84;5092729;28;20397;-79
2021/08/21 06:32:32;;;;;;;7.97;4.30;;;;;;;28.33;34.31;99217.31;5074424;28;20044;-83
2021/08/21 06:34:58;;;;;;;12.02;4.07;;;;;;;28.02;35.23;99217.56;5073843;28;20573;-77
2021/08/21 06:37:24;;;;;;;11.00;4.30;;;;;;;27.88;35.48;99213.50;5092475;28;20567;-80
2021/08/21 06:39:50;;;;;;;8.40;4.28;;;;;;;27.76;36.05;99218.97;5074052;28;20500;-79
2021/08/21 06:42:15;;;;;;;10.20;4.07;;;;;;;27.82;36.22;99212.56;5092527;28;20044;-80
2021/08/21 06:44:55;;;;;;;10.68;4.53;;;;;;;28.08;35.77;99210.34;5076373;28;20075;-79
2021/08/21 06:47:21;;;;;;;13.43;4.50;;;;;;;28.10;35.54;99219.06;5090931;28;20557;-78
2021/08/21 06:49:47;;;;;;;13.90;5.63;;;;;;;28.35;35.16;99218.69;5092355;28;20085;-80
2021/08/21 06:52:13;;;;;;;7.65;4.22;;;;;;;28.53;34.67;99220.34;5092142;28;20051;-78
2021/08/21 06:54:38;;;;;;;9.68;4.43;;;;;;;28.64;34.65;99217.78;5091611;28;20044;-80
2021/08/21 06:57:04;;;;;;;7.68;4.15;;;;;;;28.86;34.29;99215.97;5092365;28;20040;-81
2021/08/21 06:59:30;;;;;;;12.25;4.50;;;;;;;29.39;33.80;99212.88;5092111;28;20048;-79
2021/08/21 07:01:56;;;;;;;8.13;4.53;;;;;;;28.73;34.21;99217.13;5092745;28;20047;-79
2021/08/21 07:04:22;;;;;;;13.93;4.40;;;;;;;28.05;35.53;99211.69;5090777;28;20044;-78
2021/08/21 07:06:47;;;;;;;9.43;4.55;;;;;;;27.77;36.19;99223.34;5092623;28;20048;-79
2021/08/21 07:09:13;;;;;;;8.00;4.20;;;;;;;27.49;36.63;99224.16;5093096;28;20384;-81
2021/08/21 07:11:39;;;;;;;11.65;4.28;;;;;;;27.54;37.17;99226.97;5112197;28;20035;-76
2021/08/21 07:14:05;;;;;;;8.35;4.25;;;;;;;26.99;37.65;99209.25;5112617;28;20442;-78
2021/08/21 07:16:31;;;;;;;21.10;4.75;;;;;;;26.64;38.32;99219.84;5112525;28;20036;-80
2021/08/21 07:18:56;;;;;;;13.73;5.40;;;;;;;26.65;38.53;99215.25;5112444;28;20081;-80
2021/08/21 07:21:23;;;;;;;9.05;4.63;;;;;;;26.77;38.85;99218.00;5113162;28;20039;-78
2021/08/21 07:23:49;;;;;;;9.90;5.05;;;;;;;26.63;39.26;99218.19;5113292;28;20043;-78
2021/08/21 07:26:15;;;;;;;18.58;10.57;;;;;;;26.58;39.27;99220.78;5111651;28;20384;-79
2021/08/21 07:28:40;;;;;;;9.95;4.22;;;;;;;26.69;39.50;99215.59;5112548;28;20041;-78
2021/08/21 07:31:07;;;;;;;17.52;9.45;;;;;;;26.45;39.88;99216.41;5112516;28;20040;-81
2021/08/21 07:33:33;;;;;;;15.80;5.10;;;;;;;26.07;40.32;99224.94;5094311;28;20549;-79
2021/08/21 07:35:58;;;;;;;14.25;6.65;;;;;;;25.94;40.57;99221.31;5110800;28;20142;-77
2021/08/21 07:38:24;;;;;;;15.35;5.35;;;;;;;25.85;41.38;99222.72;5110997;28;20061;-80
2021/08/21 07:40:51;;;;;;;11.25;4.30;;;;;;;25.88;40.97;99213.31;5112456;28;20051;-85
2021/08/21 07:43:16;;;;;;;13.43;6.28;;;;;;;25.74;41.54;99216.19;5112664;28;20130;-82
2021/08/21 07:45:45;;;;;;;8.73;4.82;;;;;;;25.50;41.72;99215.28;5078388;28;20138;-77
2021/08/21 07:48:13;;;;;;;10.50;5.50;;;;;;;25.44;42.21;99221.59;5115216;28;20054;-80
2021/08/21 07:50:38;;;;;;;;;;;;;;;25.56;42.00;99222.50;5116614;28;20094;-80
2021/08/21 07:53:04;;;;;;;13.52;5.78;;;;;;;25.70;41.50;99220.44;5116045;28;20374;-82
2021/08/21 07:55:30;;;;;;;16.80;5.88;;;;;;;26.02;40.87;99212.06;5114516;28;20385;-78
2021/08/21 07:57:55;;;;;;;12.70;5.45;;;;;;;26.51;40.34;99217.38;5114495;28;20115;-79
2021/08/21 08:00:21;;;;;;;20.80;14.20;;;;;;;27.33;39.11;99218.41;5115880;28;20139;-79
2021/08/21 08:02:47;;;;;;;12.50;5.50;;;;;;;27.56;38.09;99214.81;5116795;28;20430;-77
2021/08/21 08:05:13;;;;;;;30.92;16.42;;;;;;;27.62;38.39;99217.63;5116236;28;20138;-79
2021/08/21 08:07:39;;;;;;;15.27;6.75;;;;;;;28.13;36.97;99212.34;5114432;28;20101;-80
2021/08/21 08:10:06;;;;;;;14.50;5.30;;;;;;;27.70;37.80;99230.81;5115882;28;20131;-80
2021/08/21 08:12:32;;;;;;;12.07;5.93;;;;;;;27.55;38.70;99236.78;5116070;28;20043;-79
2021/08/21 08:14:58;;;;;;;10.98;5.13;;;;;;;27.88;38.14;99233.34;5115834;28;20503;-79
2021/08/21 08:17:24;;;;;;;14.30;6.30;;;;;;;27.55;38.63;99234.06;5115298;28;20043;-77
2021/08/21 08:19:51;;;;;;;15.98;5.72;;;;;;;27.33;38.25;99236.56;5115692;28;20212;-80
2021/08/21 08:22:19;;;;;;;13.32;5.60;;;;;;;26.72;39.34;99242.28;5116233;28;20044;-80
2021/08/21 08:24:46;;;;;;;18.63;5.75;;;;;;;26.50;40.04;99245.53;5114946;28;20054;-79
2021/08/21 08:27:13;;;;;;;8.38;5.13;;;;;;;26.11;40.64;99229.66;5115758;28;20120;-76
2021/08/21 08:29:39;;;;;;;;;;;;;;;25.68;41.76;99239.63;5115511;28;20054;-78
2021/08/21 08:32:05;;;;;;;10.02;5.18;;;;;;;25.42;42.63;99245.34;5115365;28;19924;-75
2021/08/21 08:34:31;;;;;;;11.65;5.35;;;;;;;25.30;43.10;99235.25;5113466;28;20400;-81
2021/08/21 08:36:56;;;;;;;10.30;5.13;;;;;;;25.31;42.58;99234.22;5115487;28;20054;-78
2021/08/21 08:39:22;;;;;;;12.82;5.43;;;;;;;25.45;42.57;99234.91;5114915;28;20107;-79
2021/08/21 08:41:48;;;;;;;12.57;5.85;;;;;;;25.60;42.25;99244.53;5115006;28;20039;-79
2021/08/21 08:44:15;;;;;;;12.18;5.95;;;;;;;25.75;42.27;99233.28;5114747;28;20044;-79
2021/08/21 08:46:42;;;;;;;14.55;5.65;;;;;;;25.94;41.52;99243.00;5114381;28;20058;-81
2021/08/21 08:49:08;;;;;;;9.13;5.38;;;;;;;26.32;41.40;99236.44;5115483;28;20581;-78
2021/08/21 08:51:34;;;;;;;14.05;5.80;;;;;;;27.04;39.87;99244.63;5115195;28;20138;-81
2021/08/21 08:54:00;;;;;;;14.98;5.90;;;;;;;27.50;38.89;99242.94;5114813;28;20046;-79
2021/08/21 08:56:26;;;;;;;13.55;5.38;;;;;;;27.48;38.25;99245.09;5114609;28;20138;-75
2021/08/21 08:58:52;;;;;;;12.02;5.68;;;;;;;27.72;37.72;99245.81;5114470;28;20046;-76
2021/08/21 09:01:17;;;;;;;10.35;5.78;;;;;;;28.50;37.05;99244.50;5113714;28;20104;-77
2021/08/21 09:03:43;;;;;;;10.07;5.22;;;;;;;28.78;36.25;99240.06;5114575;28;20035;-80
2021/08/21 09:06:13;;;;;;;10.50;5.30;;;;;;;28.46;36.82;99244.16;5115061;27;20044;-78
2021/08/21 09:08:40;;;;;;;11.48;5.80;;;;;;;28.39;36.97;99238.06;5096541;28;20496;-77
2021/08/21 09:11:23;;;;;;;15.73;5.53;;;;;;;27.79;37.49;99244.84;5114571;28;20411;-79
2021/08/21 09:13:50;;;;;;;10.95;4.78;;;;;;;27.39;38.29;99246.47;5115562;28;20123;-78
2021/08/21 09:16:26;;;;;;;;;;;;;;;27.38;38.67;99245.66;5116557;28;20523;-78
2021/08/21 09:19:03;;;;;;;11.02;5.13;;;;;;;26.85;39.08;99244.75;5116270;28;19962;-78
2021/08/21 09:22:03;;;;;;;9.32;5.40;;;;;;;26.60;39.81;99248.50;5175788;27;20148;-78
2021/08/21 09:24:31;;;;;;;12.95;5.25;;;;;;;26.68;40.45;99246.50;5151670;27;20126;-78
2021/08/21 09:27:20;;;;;;;15.48;5.43;;;;;;;26.81;39.97;99246.31;5152522;27;20043;-78
2021/08/21 09:30:02;;;;;;;11.88;5.60;;;;;;;26.93;39.67;99254.44;5136033;27;20141;-81
2021/08/21 09:32:28;;;;;;;13.90;5.68;;;;;;;27.07;39.41;99246.91;5129522;28;20516;-78
2021/08/21 09:35:01;;;;;;;7.45;5.13;;;;;;;27.17;39.08;99249.00;5130564;28;20047;-78
2021/08/21 09:37:27;;;;;;;12.52;5.78;;;;;;;27.30;39.16;99254.16;5130767;28;20039;-78
2021/08/21 09:40:02;;;;;;;11.63;5.50;;;;;;;27.43;39.13;99247.69;5130239;28;20403;-78
2021/08/21 09:42:38;;;;;;;12.07;5.45;;;;;;;27.83;38.11;99246.84;5129531;27;20039;-80
2021/08/21 09:45:10;;;;;;;14.35;5.22;;;;;;;27.71;38.48;99243.34;5132079;28;20093;-76
2021/08/21 09:47:38;;;;;;;12.02;5.78;;;;;;;28.14;38.16;99252.88;5130954;28;20050;-80
2021/08/21 09:50:34;;;;;;;9.80;5.72;;;;;;;29.21;36.26;99258.38;5130333;28;20049;-80
2021/08/21 09:53:04;;;;;;;13.23;5.65;;;;;;;29.95;34.55;99258.22;5126960;28;20488;-79
2021/08/21 09:55:30;;;;;;;15.63;5.97;;;;;;;30.31;33.76;99245.75;5130159;27;20047;-82
2021/08/21 09:58:03;;;;;;;14.60;5.93;;;;;;;30.98;33.33;99249.00;5130059;28;20130;-77
2021/08/21 10:00:48;;;;;;;14.70;7.32;;;;;;;31.08;33.09;99253.72;5130811;28;20371;-79
2021/08/21 10:03:15;;;;;;;17.70;5.55;;;;;;;31.48;31.96;99248.72;5130786;27;20446;-77
2021/08/21 10:05:41;;;;;;;12.40;6.25;;;;;;;31.33;32.13;99246.75;5129590;27;20062;-79
2021/08/21 10:08:12;;;;;;;13.33;5.57;;;;;;;31.26;32.01;99251.63;5130058;27;20043;-78
2021/08/21 10:10:49;;;;;;;13.85;6.43;;;;;;;30.44;33.18;99251.84;5130909;28;20055;-79
2021/08/21 10:13:24;;;;;;;12.95;6.20;;;;;;;30.13;34.03;99252.41;5130262;27;20111;-77
2021/08/21 10:15:51;;;;;;;12.88;6.25;;;;;;;30.21;34.05;99251.13;5131649;27;20475;-81
2021/08/21 10:18:18;;;;;;;10.32;6.20;;;;;;;29.99;34.12;99251.16;5096904;28;20046;-79
2021/08/21 10:21:03;;;;;;;18.95;6.03;;;;;;;29.25;35.63;99255.13;5115329;28;20463;-77
2021/08/21 10:23:29;;;;;;;16.30;6.28;;;;;;;29.17;35.86;99253.69;5131483;28;20079;-78
2021/08/21 10:25:57;;;;;;;11.10;5.68;;;;;;;28.83;36.50;99243.69;5130849;27;20191;-78
2021/08/21 10:28:24;;;;;;;17.27;6.07;;;;;;;28.98;36.24;99247.72;5130946;27;20047;-76
2021/08/21 10:30:50;;;;;;;18.88;8.43;;;;;;;29.00;35.93;99253.75;5130574;28;20043;-76
2021/08/21 10:33:17;;;;;;;13.80;6.10;;;;;;;29.05;36.15;99245.63;5116206;27;20043;-77
2021/08/21 10:35:47;;;;;;;14.77;7.18;;;;;;;28.81;36.97;99253.16;5116551;28;20107;-78
2021/08/21 10:38:35;;;;;;;14.15;7.47;;;;;;;29.01;36.86;99252.63;5117558;28;20040;-78
2021/08/21 10:41:10;;;;;;;13.40;6.70;;;;;;;28.53;37.17;99252.97;5116803;28;20051;-77
2021/08/21 10:43:57;;;;;;;10.93;5.63;;;;;;;28.17;38.65;99257.81;5115420;28;20587;-81
2021/08/21 10:46:28;;;;;;;17.25;6.55;;;;;;;28.49;38.10;99254.56;5117370;28;20035;-81
2021/08/21 10:49:06;;;;;;;15.55;6.75;;;;;;;28.68;37.37;99262.50;5116117;28;20116;-81
2021/08/21 10:51:39;;;;;;;15.50;6.18;;;;;;;28.52;36.93;99253.25;5116083;28;20047;-80
2021/08/21 10:54:27;;;;;;;13.57;6.00;;;;;;;28.54;37.15;99256.53;5116491;28;20044;-77
2021/08/21 10:56:54;;;;;;;17.05;6.13;;;;;;;28.40;37.77;99256.06;5117609;28;20067;-77
2021/08/21 10:59:39;;;;;;;;;;;;;;;28.28;37.81;99258.03;5116350;28;20697;-78
2021/08/21 11:02:23;;;;;;;15.27;8.40;;;;;;;28.29;37.68;99252.31;5114775;28;19926;-78
2021/08/21 11:04:49;;;;;;;19.75;6.63;;;;;;;27.96;38.24;99272.09;5116155;28;20054;-78
2021/08/21 11:07:30;;;;;;;13.43;6.28;;;;;;;28.00;38.35;99246.06;5115700;28;20044;-80
2021/08/21 11:10:22;;;;;;;16.23;9.77;;;;;;;28.06;38.10;99255.97;5115389;28;20044;-80
2021/08/21 11:12:53;;;;;;;15.43;5.45;;;;;;;28.31;37.12;99242.00;5113102;28;20054;-78
2021/08/21 11:15:24;;;;;;;14.30;5.95;;;;;;;28.58;36.84;99241.38;5115585;28;20039;-78
2021/08/21 11:17:51;;;;;;;11.27;6.10;;;;;;;28.34;37.67;99241.53;5115087;28;20042;-81
2021/08/21 11:20:33;;;;;;;11.50;5.68;;;;;;;28.00;37.96;99240.63;5114333;28;20102;-76
2021/08/21 11:23:05;;;;;;;11.73;5.80;;;;;;;27.58;38.32;99244.47;5115728;28;20078;-78
2021/08/21 11:25:31;;;;;;;15.43;5.90;;;;;;;27.64;38.90;99242.66;5114682;28;20099;-78
2021/08/21 11:28:08;;;;;;;13.50;5.82;;;;;;;27.37;38.76;99243.19;5114902;28;20518;-80
2021/08/21 11:30:36;;;;;;;12.45;5.68;;;;;;;27.35;39.04;99237.16;5115459;28;20063;-78
2021/08/21 11:33:07;;;;;;;16.27;6.57;;;;;;;27.10;39.79;99249.13;5115570;28;20039;-80
2021/08/21 11:35:36;;;;;;;14.07;6.10;;;;;;;27.10;40.23;99246.41;5114981;28;20109;-77